Time;durP1;ratioP1;P1;durP2;ratioP2;P2;SDS_P1;SDS_P2;PMS_P1;PMS_P2;Temp;Humidity;BMP_temperature;BMP_pressure;BME280_temperature;BME280_humidity;BME280_pressure;Samples;Min_cycle;Max_cycle;Signal;HPM_P1;HPM_P2
2022/04/28 00:00:52;;;;;;;;;;;8.50;65.60;;;;;;2073517;28;20420;-91
2022/04/28 00:01:52;;;;;;;;;;;8.40;65.50;;;;;;2082369;28;19952;-90
2022/04/28 00:02:53;;;;;;;;;;;8.40;65.60;;;;;;2086089;28;20285;-90
2022/04/28 00:03:54;;;;;;;;;;;8.40;65.70;;;;;;2083947;28;19913;-90
2022/04/28 00:04:55;;;;;;;;;;;8.40;65.70;;;;;;2091469;28;19917;-89
2022/04/28 00:05:57;;;;;;;;;;;8.40;65.90;;;;;;2088738;28;19917;-91
2022/04/28 00:06:57;;;;;;;;;;;8.40;65.90;;;;;;2098306;28;19972;-90
2022/04/28 00:07:58;;;;;;;;;;;8.40;65.80;;;;;;2097317;28;19912;-90
2022/04/28 00:08:59;;;;;;;;;;;8.40;65.80;;;;;;2078414;28;19920;-90
2022/04/28 00:09:59;;;;;;;;;;;8.40;65.90;;;;;;2081303;28;19917;-90
2022/04/28 00:11:00;;;;;;;;;;;8.30;65.80;;;;;;2072624;28;20411;-89
2022/04/28 00:12:00;;;;;;;;;;;8.40;66.00;;;;;;2082533;28;19936;-89
2022/04/28 00:13:01;;;;;;;;;;;8.40;65.90;;;;;;2090234;28;19913;-89
2022/04/28 00:14:02;;;;;;;;;;;8.40;65.90;;;;;;2099044;28;20389;-89
2022/04/28 00:15:03;;;;;;;;;;;8.30;66.00;;;;;;2098940;28;19908;-89
2022/04/28 00:16:04;;;;;;;;;;;8.30;66.00;;;;;;2100095;28;19969;-90
2022/04/28 00:17:05;;;;;;;;;;;8.30;66.20;;;;;;2092049;28;20455;-92
2022/04/28 00:18:05;;;;;;;;;;;8.30;66.10;;;;;;2075803;28;19923;-91
2022/04/28 00:19:06;;;;;;;;;;;8.30;66.00;;;;;;2083186;28;20400;-89
2022/04/28 00:20:07;;;;;;;;;;;8.30;66.00;;;;;;2075251;28;19917;-89
2022/04/28 00:21:07;;;;;;;;;;;8.30;66.10;;;;;;2094811;28;19920;-89
2022/04/28 00:22:08;;;;;;;;;;;8.30;66.00;;;;;;2095785;28;19959;-90
2022/04/28 00:23:09;;;;;;;;;;;8.30;66.10;;;;;;2089430;28;19955;-89
2022/04/28 00:24:09;;;;;;;;;;;8.30;66.10;;;;;;2083697;28;19917;-89
2022/04/28 00:25:10;;;;;;;;;;;8.30;66.10;;;;;;2075725;28;19913;-90
2022/04/28 00:26:11;;;;;;;;;;;8.30;66.10;;;;;;2088081;28;19936;-91
2022/04/28 00:27:11;;;;;;;;;;;8.30;66.10;;;;;;2095457;28;19916;-89
2022/04/28 00:28:12;;;;;;;;;;;8.30;66.00;;;;;;2078718;28;19951;-89
2022/04/28 00:29:12;;;;;;;;;;;8.30;66.10;;;;;;2098392;28;19948;-89
2022/04/28 00:30:13;;;;;;;;;;;8.30;66.20;;;;;;2090407;28;19917;-89
2022/04/28 00:31:13;;;;;;;;;;;8.30;66.10;;;;;;2081090;28;19987;-90
2022/04/28 00:32:14;;;;;;;;;;;8.30;66.10;;;;;;2083325;28;20394;-89
2022/04/28 00:33:15;;;;;;;;;;;8.30;66.20;;;;;;2092217;28;20003;-89
2022/04/28 00:34:15;;;;;;;;;;;8.30;66.10;;;;;;2092924;28;19932;-89
2022/04/28 00:35:16;;;;;;;;;;;8.30;66.10;;;;;;2083782;28;20015;-89
2022/04/28 00:36:16;;;;;;;;;;;8.30;66.20;;;;;;2092906;28;19917;-89
2022/04/28 00:37:18;;;;;;;;;;;8.30;66.20;;;;;;2097962;28;19920;-89
2022/04/28 00:38:19;;;;;;;;;;;8.30;66.20;;;;;;2099239;28;19909;-89
2022/04/28 00:39:19;;;;;;;;;;;8.30;66.20;;;;;;2105827;28;19966;-90
2022/04/28 00:40:20;;;;;;;;;;;8.20;66.20;;;;;;2099780;28;19924;-89
2022/04/28 00:41:21;;;;;;;;;;;8.20;66.30;;;;;;2091209;28;19978;-90
2022/04/28 00:42:21;;;;;;;;;;;8.20;66.30;;;;;;2099491;28;19936;-89
2022/04/28 00:43:28;;;;;;;;;;;8.20;66.20;;;;;;2079136;28;20009;-88
2022/04/28 00:44:29;;;;;;;;;;;8.20;66.20;;;;;;2086208;28;19913;-90
2022/04/28 00:45:29;;;;;;;;;;;8.20;66.30;;;;;;2093676;28;19913;-90
2022/04/28 00:46:30;;;;;;;;;;;8.20;66.20;;;;;;2095215;28;19909;-90
2022/04/28 00:51:30;;;;;;;;;;;8.20;66.30;;;;;;2102493;28;19920;-89
2022/04/28 00:52:32;;;;;;;;;;;8.30;66.30;;;;;;2087668;28;20003;-90
2022/04/28 00:53:35;;;;;;;;;;;8.20;66.20;;;;;;2083604;28;19913;-90
2022/04/28 00:54:35;;;;;;;;;;;8.20;66.20;;;;;;2096405;28;19933;-90
2022/04/28 00:55:36;;;;;;;;;;;8.20;66.30;;;;;;2088241;28;19992;-89
2022/04/28 00:56:36;;;;;;;;;;;8.20;66.20;;;;;;2090529;28;19944;-90
2022/04/28 00:57:37;;;;;;;;;;;8.20;66.30;;;;;;2082845;28;19933;-89
2022/04/28 00:58:41;;;;;;;;;;;8.20;66.30;;;;;;2083088;28;19921;-89
2022/04/28 00:59:41;;;;;;;;;;;8.20;66.40;;;;;;2080207;28;19909;-89
2022/04/28 01:00:42;;;;;;;;;;;8.20;66.40;;;;;;2091017;28;19939;-89
2022/04/28 01:01:43;;;;;;;;;;;8.20;66.60;;;;;;2082949;28;19940;-89
2022/04/28 01:02:43;;;;;;;;;;;8.10;66.60;;;;;;2090060;28;19986;-89
2022/04/28 01:03:46;;;;;;;;;;;8.10;66.60;;;;;;2094622;28;19912;-90
2022/04/28 01:04:47;;;;;;;;;;;8.10;66.60;;;;;;2083941;28;20020;-90
2022/04/28 01:05:47;;;;;;;;;;;8.10;66.60;;;;;;2096088;28;19921;-90
2022/04/28 01:06:48;;;;;;;;;;;8.10;66.70;;;;;;2093162;28;20008;-89
2022/04/28 01:07:49;;;;;;;;;;;8.10;66.60;;;;;;2106024;28;19989;-90
2022/04/28 01:08:49;;;;;;;;;;;8.10;67.00;;;;;;2096150;28;19913;-90
2022/04/28 01:09:50;;;;;;;;;;;8.10;66.80;;;;;;2080748;28;19917;-89
2022/04/28 01:10:53;;;;;;;;;;;8.10;66.80;;;;;;2088903;28;19990;-90
2022/04/28 01:11:54;;;;;;;;;;;8.10;66.70;;;;;;2084441;28;20378;-89
2022/04/28 01:12:55;;;;;;;;;;;8.10;66.80;;;;;;2080162;28;19914;-89
2022/04/28 01:13:55;;;;;;;;;;;8.10;67.00;;;;;;2089811;28;19923;-90
2022/04/28 01:14:58;;;;;;;;;;;8.10;66.80;;;;;;2095473;28;19948;-90
2022/04/28 01:15:59;;;;;;;;;;;8.00;66.80;;;;;;2090009;28;20349;-89
2022/04/28 01:17:00;;;;;;;;;;;8.00;66.80;;;;;;2091210;28;19909;-90
2022/04/28 01:18:01;;;;;;;;;;;8.00;66.90;;;;;;2095806;28;19913;-90
2022/04/28 01:19:01;;;;;;;;;;;8.00;66.90;;;;;;2099303;28;20019;-90
2022/04/28 01:20:02;;;;;;;;;;;8.00;66.90;;;;;;2094525;28;19962;-90
2022/04/28 01:21:03;;;;;;;;;;;8.00;66.90;;;;;;2097204;28;19936;-89
2022/04/28 01:22:05;;;;;;;;;;;8.00;67.00;;;;;;2089347;28;20043;-90
2022/04/28 01:23:06;;;;;;;;;;;8.00;67.00;;;;;;2083131;28;19915;-90
2022/04/28 01:24:06;;;;;;;;;;;8.00;67.10;;;;;;2091180;28;19923;-90
2022/04/28 01:25:08;;;;;;;;;;;7.90;67.00;;;;;;2091379;28;19909;-90
2022/04/28 01:26:08;;;;;;;;;;;7.90;67.10;;;;;;2088016;28;19955;-90
2022/04/28 01:27:09;;;;;;;;;;;7.90;67.20;;;;;;2089608;28;19912;-90
2022/04/28 01:28:09;;;;;;;;;;;7.90;67.10;;;;;;2078056;28;19910;-90
2022/04/28 01:29:10;;;;;;;;;;;7.90;67.10;;;;;;2082949;28;19913;-90
2022/04/28 01:30:12;;;;;;;;;;;7.90;67.30;;;;;;2074697;28;20402;-89
2022/04/28 01:31:13;;;;;;;;;;;7.90;67.30;;;;;;2081301;28;19924;-90
2022/04/28 01:32:14;;;;;;;;;;;7.80;67.30;;;;;;2095879;28;19952;-90
2022/04/28 01:33:14;;;;;;;;;;;7.80;67.40;;;;;;2089234;28;20067;-90
2022/04/28 01:34:15;;;;;;;;;;;7.80;67.30;;;;;;2074632;28;20009;-90
2022/04/28 01:35:15;;;;;;;;;;;7.80;67.30;;;;;;2081943;28;19919;-90
2022/04/28 01:36:16;;;;;;;;;;;7.80;67.50;;;;;;2073714;28;20149;-90
2022/04/28 01:37:17;;;;;;;;;;;7.80;67.50;;;;;;2082996;28;19925;-90
2022/04/28 01:38:18;;;;;;;;;;;7.80;67.40;;;;;;2089980;28;19924;-91
2022/04/28 01:39:19;;;;;;;;;;;7.80;67.50;;;;;;2081272;28;19920;-90
2022/04/28 01:40:21;;;;;;;;;;;7.80;67.40;;;;;;2069944;28;19918;-90
2022/04/28 01:41:21;;;;;;;;;;;7.70;67.50;;;;;;2081868;28;19963;-90
2022/04/28 01:42:25;;;;;;;;;;;7.80;67.60;;;;;;2087625;28;20450;-91
2022/04/28 01:43:25;;;;;;;;;;;7.70;67.40;;;;;;2082696;28;19913;-90
2022/04/28 01:44:26;;;;;;;;;;;7.70;67.50;;;;;;2087344;28;19916;-90
2022/04/28 01:45:26;;;;;;;;;;;7.70;67.50;;;;;;2094119;28;19997;-90
2022/04/28 01:46:27;;;;;;;;;;;7.70;67.70;;;;;;2099661;28;19978;-90
2022/04/28 01:47:28;;;;;;;;;;;7.70;67.60;;;;;;2094173;28;19924;-90
2022/04/28 01:48:29;;;;;;;;;;;7.70;67.80;;;;;;2082901;28;19928;-90
2022/04/28 01:49:29;;;;;;;;;;;7.70;67.80;;;;;;2082415;28;19917;-90
2022/04/28 01:50:30;;;;;;;;;;;7.60;67.70;;;;;;2081904;28;19924;-90
2022/04/28 01:55:31;;;;;;;;;;;7.70;67.80;;;;;;2087876;28;19917;-90
2022/04/28 01:56:31;;;;;;;;;;;7.60;67.70;;;;;;2092748;28;19995;-90
2022/04/28 01:57:32;;;;;;;;;;;7.60;67.70;;;;;;2083990;28;19921;-90
2022/04/28 01:58:32;;;;;;;;;;;7.60;67.70;;;;;;2085166;28;20032;-90
2022/04/28 01:59:33;;;;;;;;;;;7.60;67.70;;;;;;2085490;28;19983;-90
2022/04/28 02:00:34;;;;;;;;;;;7.60;67.70;;;;;;2094148;28;19924;-90
2022/04/28 02:01:34;;;;;;;;;;;7.60;67.60;;;;;;2086107;28;19913;-90
2022/04/28 02:02:35;;;;;;;;;;;7.60;67.70;;;;;;2085044;28;19925;-91
2022/04/28 02:03:35;;;;;;;;;;;7.60;67.90;;;;;;2095254;28;19920;-90
2022/04/28 02:04:36;;;;;;;;;;;7.60;67.90;;;;;;2107394;28;19949;-90
2022/04/28 02:05:36;;;;;;;;;;;7.60;67.90;;;;;;2098494;28;20396;-90
2022/04/28 02:06:37;;;;;;;;;;;7.60;67.90;;;;;;2075111;28;19960;-91
2022/04/28 02:07:38;;;;;;;;;;;7.60;68.20;;;;;;2083013;28;20066;-90
2022/04/28 02:08:39;;;;;;;;;;;7.50;68.10;;;;;;2074709;28;19945;-91
2022/04/28 02:09:40;;;;;;;;;;;7.50;68.00;;;;;;2075400;28;19920;-91
2022/04/28 02:10:41;;;;;;;;;;;7.50;68.30;;;;;;2085661;28;19947;-91
2022/04/28 02:11:41;;;;;;;;;;;7.50;68.30;;;;;;2092136;28;19913;-91
2022/04/28 02:12:42;;;;;;;;;;;7.40;68.30;;;;;;2081219;28;20369;-91
2022/04/28 02:13:43;;;;;;;;;;;7.40;68.40;;;;;;2081041;28;19962;-90
2022/04/28 02:14:43;;;;;;;;;;;7.40;68.30;;;;;;2088482;28;19979;-91
2022/04/28 02:15:45;;;;;;;;;;;7.40;68.40;;;;;;2071528;28;19945;-90
2022/04/28 02:16:46;;;;;;;;;;;7.40;68.50;;;;;;2080810;28;19913;-90
2022/04/28 02:17:47;;;;;;;;;;;7.30;68.70;;;;;;2094553;28;19917;-90
2022/04/28 02:18:47;;;;;;;;;;;7.30;68.60;;;;;;2083201;28;19917;-90
2022/04/28 02:19:48;;;;;;;;;;;7.30;68.60;;;;;;2061701;28;19918;-90
2022/04/28 02:20:49;;;;;;;;;;;7.30;68.70;;;;;;2066615;28;19922;-90
2022/04/28 02:21:49;;;;;;;;;;;7.30;68.70;;;;;;2076680;28;19960;-90
2022/04/28 02:22:50;;;;;;;;;;;7.30;68.60;;;;;;2081645;28;19924;-90
2022/04/28 02:23:50;;;;;;;;;;;7.30;68.60;;;;;;2089755;28;19920;-90
2022/04/28 02:24:51;;;;;;;;;;;7.30;68.60;;;;;;2089679;28;19913;-90
2022/04/28 02:25:51;;;;;;;;;;;7.30;68.50;;;;;;2102674;28;19921;-90
2022/04/28 02:26:52;;;;;;;;;;;7.30;68.50;;;;;;2097506;28;20007;-90
2022/04/28 02:27:53;;;;;;;;;;;7.30;68.50;;;;;;2082238;28;19914;-90
2022/04/28 02:28:53;;;;;;;;;;;7.30;68.40;;;;;;2082342;28;19924;-90
2022/04/28 02:29:54;;;;;;;;;;;7.30;68.40;;;;;;2082750;28;19914;-90
2022/04/28 02:30:55;;;;;;;;;;;7.30;68.40;;;;;;2075167;28;19918;-90
2022/04/28 02:31:55;;;;;;;;;;;7.30;68.40;;;;;;2081468;28;20431;-90
2022/04/28 02:33:11;;;;;;;;;;;7.30;68.40;;;;;;2084208;28;19917;-90
2022/04/28 02:34:11;;;;;;;;;;;7.30;68.50;;;;;;2082294;28;19921;-90
2022/04/28 02:35:12;;;;;;;;;;;7.30;68.60;;;;;;2080709;28;19917;-90
2022/04/28 02:36:13;;;;;;;;;;;7.30;68.50;;;;;;2082488;28;19924;-90
2022/04/28 02:37:16;;;;;;;;;;;7.30;68.50;;;;;;2089262;28;19975;-90
2022/04/28 02:38:16;;;;;;;;;;;7.30;68.50;;;;;;2080234;28;19921;-90
2022/04/28 02:39:19;;;;;;;;;;;7.30;68.60;;;;;;2076680;28;19918;-90
2022/04/28 02:40:20;;;;;;;;;;;7.30;68.50;;;;;;2076181;28;19920;-90
2022/04/28 02:41:21;;;;;;;;;;;7.30;68.50;;;;;;2083471;28;19975;-90
2022/04/28 02:42:21;;;;;;;;;;;7.30;68.50;;;;;;2092614;28;19917;-90
2022/04/28 02:43:23;;;;;;;;;;;7.30;68.60;;;;;;2081772;28;19949;-90
2022/04/28 02:44:23;;;;;;;;;;;7.30;68.70;;;;;;2087331;28;19923;-91
2022/04/28 02:45:24;;;;;;;;;;;7.30;68.70;;;;;;2081774;28;19932;-90
2022/04/28 02:46:24;;;;;;;;;;;7.20;68.70;;;;;;2083247;28;19917;-90
2022/04/28 02:47:25;;;;;;;;;;;7.30;68.80;;;;;;2090840;28;19948;-90
2022/04/28 02:48:25;;;;;;;;;;;7.20;69.00;;;;;;2091659;28;19917;-91
2022/04/28 02:49:26;;;;;;;;;;;7.20;69.00;;;;;;2092887;28;19917;-90
2022/04/28 02:50:27;;;;;;;;;;;7.20;69.10;;;;;;2091329;28;19925;-90
2022/04/28 02:51:27;;;;;;;;;;;7.20;69.00;;;;;;2095587;28;19917;-90
2022/04/28 02:52:29;;;;;;;;;;;7.20;68.90;;;;;;2087399;28;20308;-90
2022/04/28 02:53:29;;;;;;;;;;;7.20;68.90;;;;;;2098325;28;20010;-90
2022/04/28 02:54:31;;;;;;;;;;;7.20;68.90;;;;;;2081997;28;19925;-90
2022/04/28 02:55:31;;;;;;;;;;;7.20;69.00;;;;;;2079569;28;19956;-90
2022/04/28 02:56:32;;;;;;;;;;;7.20;69.10;;;;;;2081395;28;19913;-89
2022/04/28 02:57:33;;;;;;;;;;;7.20;69.10;;;;;;2098641;28;20015;-91
2022/04/28 02:58:37;;;;;;;;;;;7.20;69.10;;;;;;2098869;28;19962;-90
2022/04/28 02:59:37;;;;;;;;;;;7.20;69.10;;;;;;2090384;28;20400;-90
2022/04/28 03:00:38;;;;;;;;;;;7.20;69.60;;;;;;2074479;28;20020;-90
2022/04/28 03:01:38;;;;;;;;;;;7.20;69.80;;;;;;2074209;28;20460;-90
2022/04/28 03:02:39;;;;;;;;;;;7.10;69.40;;;;;;2088357;28;19920;-90
2022/04/28 03:03:39;;;;;;;;;;;7.20;69.40;;;;;;2091871;28;19913;-90
2022/04/28 03:04:40;;;;;;;;;;;7.20;69.50;;;;;;2094179;28;19919;-90
2022/04/28 03:10:58;;;;;;;;;;;7.10;69.70;;;;;;2096306;28;19926;-90
2022/04/28 03:11:58;;;;;;;;;;;7.10;69.50;;;;;;2081357;28;19914;-90
2022/04/28 03:12:59;;;;;;;;;;;7.10;69.50;;;;;;2082080;28;19913;-90
2022/04/28 03:14:00;;;;;;;;;;;7.10;69.50;;;;;;2089696;28;19937;-90
2022/04/28 03:15:00;;;;;;;;;;;7.10;69.50;;;;;;2090092;28;19932;-90
2022/04/28 03:16:01;;;;;;;;;;;7.10;69.60;;;;;;2087161;28;19927;-90
2022/04/28 03:17:02;;;;;;;;;;;7.10;69.70;;;;;;2095937;28;19909;-90
2022/04/28 03:18:02;;;;;;;;;;;7.10;69.80;;;;;;2090415;28;19917;-89
2022/04/28 03:19:03;;;;;;;;;;;7.10;69.70;;;;;;2092213;28;19912;-92
2022/04/28 03:20:04;;;;;;;;;;;7.10;69.60;;;;;;2097609;28;20007;-90
2022/04/28 03:21:05;;;;;;;;;;;7.10;69.60;;;;;;2095168;28;19927;-90
2022/04/28 03:22:06;;;;;;;;;;;7.10;69.60;;;;;;2082100;28;19913;-90
2022/04/28 03:23:06;;;;;;;;;;;7.10;69.60;;;;;;2073936;28;20366;-91
2022/04/28 03:24:07;;;;;;;;;;;7.10;69.60;;;;;;2069759;28;20170;-91
2022/04/28 03:25:08;;;;;;;;;;;7.10;69.50;;;;;;2089516;28;20012;-91
2022/04/28 03:26:08;;;;;;;;;;;7.10;69.60;;;;;;2079897;28;19918;-90
2022/04/28 03:27:09;;;;;;;;;;;7.10;69.50;;;;;;2083386;28;19956;-90
2022/04/28 03:28:09;;;;;;;;;;;7.20;69.70;;;;;;2093210;28;19912;-91
2022/04/28 03:29:10;;;;;;;;;;;7.10;69.80;;;;;;2085889;28;19920;-90
2022/04/28 03:30:11;;;;;;;;;;;7.10;69.70;;;;;;2090539;28;20423;-90
2022/04/28 03:31:11;;;;;;;;;;;7.10;69.80;;;;;;2081668;28;19921;-90
2022/04/28 03:32:12;;;;;;;;;;;7.10;69.80;;;;;;2073914;28;19910;-90
2022/04/28 03:33:13;;;;;;;;;;;7.10;70.10;;;;;;2093121;28;19920;-90
2022/04/28 03:34:14;;;;;;;;;;;7.10;69.90;;;;;;2089099;28;19912;-90
2022/04/28 03:35:14;;;;;;;;;;;7.10;70.00;;;;;;2097900;28;20425;-90
2022/04/28 03:37:34;;;;;;;;;;;7.10;69.90;;;;;;2091226;28;19964;-90
2022/04/28 03:38:34;;;;;;;;;;;7.10;69.80;;;;;;2085440;28;19924;-90
2022/04/28 03:39:37;;;;;;;;;;;7.10;69.80;;;;;;2075549;28;19917;-90
2022/04/28 03:40:38;;;;;;;;;;;7.10;69.80;;;;;;2082176;28;19999;-90
2022/04/28 03:41:39;;;;;;;;;;;7.10;69.70;;;;;;2082199;28;19921;-90
2022/04/28 03:42:39;;;;;;;;;;;7.10;69.70;;;;;;2081427;28;19913;-90
2022/04/28 03:43:40;;;;;;;;;;;7.10;69.60;;;;;;2098074;28;19916;-90
2022/04/28 03:44:41;;;;;;;;;;;7.10;69.60;;;;;;2095375;28;19924;-90
2022/04/28 03:45:42;;;;;;;;;;;7.10;69.60;;;;;;2079380;28;20258;-90
2022/04/28 03:46:42;;;;;;;;;;;7.10;69.90;;;;;;2097783;28;19920;-90
2022/04/28 03:47:43;;;;;;;;;;;7.10;69.80;;;;;;2085402;28;19955;-90
2022/04/28 03:48:44;;;;;;;;;;;7.10;69.70;;;;;;2073536;28;19955;-90
2022/04/28 03:49:44;;;;;;;;;;;7.10;69.80;;;;;;2096642;28;19919;-90
2022/04/28 03:50:45;;;;;;;;;;;7.10;69.80;;;;;;2090063;28;19924;-90
2022/04/28 03:51:45;;;;;;;;;;;7.10;69.80;;;;;;2066782;28;19973;-91
2022/04/28 03:52:46;;;;;;;;;;;7.10;69.70;;;;;;2061128;28;19968;-91
2022/04/28 03:53:46;;;;;;;;;;;7.10;69.80;;;;;;2072407;28;20376;-90
2022/04/28 03:54:47;;;;;;;;;;;7.10;69.80;;;;;;2090016;28;19959;-90
2022/04/28 03:55:48;;;;;;;;;;;7.10;69.80;;;;;;2081835;28;19927;-90
2022/04/28 03:56:48;;;;;;;;;;;7.10;70.00;;;;;;2073766;28;19914;-90
2022/04/28 03:57:49;;;;;;;;;;;7.10;69.90;;;;;;2070844;28;19930;-90
2022/04/28 03:58:50;;;;;;;;;;;7.10;70.00;;;;;;2071811;28;19917;-91
2022/04/28 03:59:50;;;;;;;;;;;7.10;70.10;;;;;;2073680;28;20110;-91
2022/04/28 04:00:51;;;;;;;;;;;7.10;70.00;;;;;;2073456;28;19943;-90
2022/04/28 04:01:52;;;;;;;;;;;7.10;69.90;;;;;;2082210;28;19917;-90
2022/04/28 04:02:53;;;;;;;;;;;7.10;69.90;;;;;;2078903;28;19926;-91
2022/04/28 04:03:53;;;;;;;;;;;7.10;70.00;;;;;;2088438;28;19928;-90
2022/04/28 04:04:54;;;;;;;;;;;7.00;70.00;;;;;;2081452;28;20519;-90
2022/04/28 04:05:54;;;;;;;;;;;7.00;70.00;;;;;;2076500;28;20297;-90
2022/04/28 04:06:55;;;;;;;;;;;7.00;70.00;;;;;;2083265;28;20002;-90
2022/04/28 04:07:56;;;;;;;;;;;7.00;70.00;;;;;;2091922;28;19917;-90
2022/04/28 04:08:56;;;;;;;;;;;7.00;70.00;;;;;;2085372;28;20405;-90
2022/04/28 04:09:57;;;;;;;;;;;7.00;70.10;;;;;;2096255;28;19913;-90
2022/04/28 04:10:58;;;;;;;;;;;7.00;70.00;;;;;;2095786;28;19921;-91
2022/04/28 04:11:59;;;;;;;;;;;7.00;70.10;;;;;;2087441;28;19936;-90
2022/04/28 04:12:59;;;;;;;;;;;7.00;70.00;;;;;;2084311;28;20022;-90
2022/04/28 04:14:00;;;;;;;;;;;7.00;70.00;;;;;;2081799;28;19964;-90
2022/04/28 04:15:01;;;;;;;;;;;7.00;70.00;;;;;;2082047;28;19991;-91
2022/04/28 04:16:01;;;;;;;;;;;7.00;70.10;;;;;;2081506;28;20374;-90
2022/04/28 04:17:02;;;;;;;;;;;7.00;70.10;;;;;;2089206;28;20419;-90
2022/04/28 04:18:03;;;;;;;;;;;7.00;70.10;;;;;;2083358;28;20364;-90
2022/04/28 04:19:03;;;;;;;;;;;7.00;70.00;;;;;;2086030;28;19917;-91
2022/04/28 04:20:04;;;;;;;;;;;7.00;70.10;;;;;;2081784;28;19916;-90
2022/04/28 04:21:05;;;;;;;;;;;7.00;70.50;;;;;;2080199;28;19922;-89
2022/04/28 04:22:05;;;;;;;;;;;7.00;70.40;;;;;;2092110;28;19919;-90
2022/04/28 04:23:06;;;;;;;;;;;7.00;70.50;;;;;;2086419;28;19924;-90
2022/04/28 04:24:07;;;;;;;;;;;6.90;70.50;;;;;;2065167;28;19918;-90
2022/04/28 04:25:08;;;;;;;;;;;6.90;70.50;;;;;;2073374;28;19921;-90
2022/04/28 04:26:08;;;;;;;;;;;6.90;70.40;;;;;;2067710;28;19941;-90
2022/04/28 04:27:13;;;;;;;;;;;6.90;70.50;;;;;;2085419;28;20448;-90
2022/04/28 04:28:14;;;;;;;;;;;6.90;70.90;;;;;;2087167;28;19951;-90
2022/04/28 04:29:15;;;;;;;;;;;6.90;70.80;;;;;;2090782;28;20011;-90
2022/04/28 04:32:53;;;;;;;;;;;6.90;71.20;;;;;;2098092;28;20068;-90
2022/04/28 04:33:54;;;;;;;;;;;6.90;71.10;;;;;;2081754;28;19976;-90
2022/04/28 04:34:55;;;;;;;;;;;6.80;70.90;;;;;;2081543;28;19925;-90
2022/04/28 04:35:55;;;;;;;;;;;6.80;70.90;;;;;;2095304;28;19917;-90
2022/04/28 04:36:56;;;;;;;;;;;6.80;70.90;;;;;;2081517;28;19947;-90
2022/04/28 04:37:57;;;;;;;;;;;6.80;70.90;;;;;;2080860;28;20414;-90
2022/04/28 04:38:57;;;;;;;;;;;6.80;70.90;;;;;;2086827;28;20425;-89
2022/04/28 04:39:58;;;;;;;;;;;6.80;70.90;;;;;;2093473;28;19956;-90
2022/04/28 04:40:59;;;;;;;;;;;6.90;70.90;;;;;;2088359;28;20384;-91
2022/04/28 04:41:59;;;;;;;;;;;6.90;70.90;;;;;;2073569;28;19940;-90
2022/04/28 04:43:00;;;;;;;;;;;6.80;71.00;;;;;;2090187;28;19917;-90
2022/04/28 04:44:01;;;;;;;;;;;6.80;70.80;;;;;;2078994;28;20015;-90
2022/04/28 04:45:01;;;;;;;;;;;6.80;70.90;;;;;;2072066;28;19964;-90
2022/04/28 04:46:02;;;;;;;;;;;6.90;70.90;;;;;;2088120;28;20043;-90
2022/04/28 04:47:03;;;;;;;;;;;6.80;70.90;;;;;;2080170;28;20417;-90
2022/04/28 04:48:04;;;;;;;;;;;6.90;70.90;;;;;;2087901;28;19925;-90
2022/04/28 04:49:04;;;;;;;;;;;6.90;70.90;;;;;;2095463;28;20388;-90
2022/04/28 04:50:06;;;;;;;;;;;6.90;70.80;;;;;;2083733;28;19913;-91
2022/04/28 04:51:07;;;;;;;;;;;6.90;71.50;;;;;;2077899;28;19917;-90
2022/04/28 04:52:07;;;;;;;;;;;6.90;70.80;;;;;;2092328;28;20018;-90
2022/04/28 04:53:08;;;;;;;;;;;6.90;70.80;;;;;;2078169;28;20006;-91
2022/04/28 04:54:09;;;;;;;;;;;6.90;70.80;;;;;;2078395;28;20004;-90
2022/04/28 04:55:09;;;;;;;;;;;6.90;70.80;;;;;;2098424;28;20005;-90
2022/04/28 04:56:10;;;;;;;;;;;6.90;70.80;;;;;;2086803;28;20353;-90
2022/04/28 04:57:10;;;;;;;;;;;6.90;70.80;;;;;;2074097;28;19956;-90
2022/04/28 04:58:11;;;;;;;;;;;6.90;70.70;;;;;;2089569;28;20050;-90
2022/04/28 04:59:11;;;;;;;;;;;7.00;71.20;;;;;;2093679;28;19939;-90
2022/04/28 05:00:12;;;;;;;;;;;6.90;71.20;;;;;;2078556;28;19917;-89
2022/04/28 05:01:13;;;;;;;;;;;6.90;71.30;;;;;;2081916;28;19921;-90
2022/04/28 05:02:13;;;;;;;;;;;7.00;71.20;;;;;;2091511;28;20331;-90
2022/04/28 05:03:14;;;;;;;;;;;6.90;71.10;;;;;;2083314;28;20083;-90
2022/04/28 05:04:14;;;;;;;;;;;6.90;71.00;;;;;;2082850;28;19909;-91
2022/04/28 05:05:15;;;;;;;;;;;7.00;71.00;;;;;;2087229;28;19976;-90
2022/04/28 05:06:16;;;;;;;;;;;7.00;70.90;;;;;;2091446;28;19974;-90
2022/04/28 05:07:17;;;;;;;;;;;7.00;70.90;;;;;;2089445;28;19944;-90
2022/04/28 05:08:17;;;;;;;;;;;7.00;71.10;;;;;;2091690;28;19982;-90
2022/04/28 05:09:18;;;;;;;;;;;7.00;71.00;;;;;;2074853;28;19920;-90
2022/04/28 05:10:18;;;;;;;;;;;7.00;71.00;;;;;;2098119;28;20361;-90
2022/04/28 05:11:19;;;;;;;;;;;7.00;71.20;;;;;;2095445;28;19973;-90
2022/04/28 05:12:20;;;;;;;;;;;7.00;71.00;;;;;;2086767;28;19948;-90
2022/04/28 05:13:20;;;;;;;;;;;7.10;71.10;;;;;;2081997;28;20004;-90
2022/04/28 05:14:21;;;;;;;;;;;7.10;71.30;;;;;;2073093;28;19918;-90
2022/04/28 05:15:21;;;;;;;;;;;7.10;71.00;;;;;;2082571;28;20392;-90
2022/04/28 05:16:22;;;;;;;;;;;7.10;71.00;;;;;;2071668;28;19997;-90
2022/04/28 05:17:22;;;;;;;;;;;7.10;70.90;;;;;;2088659;28;19967;-90
2022/04/28 05:18:23;;;;;;;;;;;7.20;71.10;;;;;;2085841;28;20027;-90
2022/04/28 05:19:24;;;;;;;;;;;7.20;71.50;;;;;;2096196;28;19912;-89
2022/04/28 05:20:25;;;;;;;;;;;7.20;70.90;;;;;;2097936;28;20066;-89
2022/04/28 05:21:26;;;;;;;;;;;7.30;71.00;;;;;;2094718;28;19943;-90
2022/04/28 05:22:26;;;;;;;;;;;7.30;70.90;;;;;;2086601;28;20307;-89
2022/04/28 05:23:27;;;;;;;;;;;7.30;70.70;;;;;;2080605;28;19940;-90
2022/04/28 05:24:27;;;;;;;;;;;7.30;70.90;;;;;;2097409;28;19921;-90
2022/04/28 05:25:29;;;;;;;;;;;7.40;70.90;;;;;;2085082;28;19916;-90
2022/04/28 05:26:29;;;;;;;;;;;7.40;70.70;;;;;;2091477;28;19932;-90
2022/04/28 05:27:30;;;;;;;;;;;7.50;70.60;;;;;;2082834;28;20350;-90
2022/04/28 05:28:31;;;;;;;;;;;7.50;70.90;;;;;;2083006;28;20297;-90
2022/04/28 05:29:31;;;;;;;;;;;7.50;70.90;;;;;;2097240;28;19989;-90
2022/04/28 05:30:32;;;;;;;;;;;7.50;70.90;;;;;;2082907;28;20004;-91
2022/04/28 05:31:32;;;;;;;;;;;7.60;70.80;;;;;;2072780;28;20303;-90
2022/04/28 05:32:33;;;;;;;;;;;7.60;70.80;;;;;;2085651;28;19923;-90
2022/04/28 05:33:34;;;;;;;;;;;7.60;70.80;;;;;;2082553;28;19909;-90
2022/04/28 05:34:35;;;;;;;;;;;7.60;70.70;;;;;;2086549;28;19967;-90
2022/04/28 05:35:37;;;;;;;;;;;7.60;70.60;;;;;;2096076;28;20015;-92
2022/04/28 05:36:39;;;;;;;;;;;7.70;70.60;;;;;;2090546;28;19912;-91
2022/04/28 05:37:40;;;;;;;;;;;7.70;70.60;;;;;;2098324;28;19920;-90
2022/04/28 05:38:40;;;;;;;;;;;7.70;70.40;;;;;;2090103;28;19913;-90
2022/04/28 05:39:42;;;;;;;;;;;7.80;70.40;;;;;;2081670;28;19920;-90
2022/04/28 05:40:43;;;;;;;;;;;7.80;70.30;;;;;;2090142;28;19959;-90
2022/04/28 05:41:43;;;;;;;;;;;7.90;70.30;;;;;;2091202;28;19909;-90
2022/04/28 05:46:42;;;;;;;;;;;8.10;69.80;;;;;;2088128;28;19959;-90
2022/04/28 05:47:42;;;;;;;;;;;8.20;69.80;;;;;;2097553;28;19917;-90
2022/04/28 05:48:43;;;;;;;;;;;8.20;69.80;;;;;;2091699;28;20551;-90
2022/04/28 05:49:43;;;;;;;;;;;8.20;69.60;;;;;;2091635;28;19971;-90
2022/04/28 05:50:44;;;;;;;;;;;8.20;69.70;;;;;;2099714;28;20403;-90
2022/04/28 05:51:45;;;;;;;;;;;8.30;69.60;;;;;;2082918;28;19935;-90
2022/04/28 05:52:45;;;;;;;;;;;8.30;69.50;;;;;;2087985;28;20012;-90
2022/04/28 05:53:46;;;;;;;;;;;8.30;69.50;;;;;;2089103;28;20412;-89
2022/04/28 05:54:46;;;;;;;;;;;8.30;69.70;;;;;;2082109;28;19979;-90
2022/04/28 05:55:47;;;;;;;;;;;8.40;69.50;;;;;;2083182;28;20427;-90
2022/04/28 05:56:48;;;;;;;;;;;8.40;69.40;;;;;;2076512;28;19962;-89
2022/04/28 05:57:48;;;;;;;;;;;8.40;69.40;;;;;;2081759;28;20451;-89
2022/04/28 05:58:49;;;;;;;;;;;8.50;69.60;;;;;;2084369;28;19916;-89
2022/04/28 05:59:49;;;;;;;;;;;8.50;70.10;;;;;;2099967;28;20369;-89
2022/04/28 06:00:50;;;;;;;;;;;8.50;69.30;;;;;;2098621;28;19916;-89
2022/04/28 06:01:50;;;;;;;;;;;8.50;69.40;;;;;;2084800;28;19983;-88
2022/04/28 06:02:52;;;;;;;;;;;8.50;69.30;;;;;;2084173;28;19948;-89
2022/04/28 06:03:52;;;;;;;;;;;8.50;69.40;;;;;;2078439;28;20019;-90
2022/04/28 06:04:53;;;;;;;;;;;8.50;69.40;;;;;;2089004;28;20363;-90
2022/04/28 06:05:53;;;;;;;;;;;8.50;69.30;;;;;;2094732;28;20099;-90
2022/04/28 06:06:54;;;;;;;;;;;8.50;69.40;;;;;;2077032;28;20981;-91
2022/04/28 06:07:55;;;;;;;;;;;8.50;69.30;;;;;;2074803;28;19921;-90
2022/04/28 06:08:55;;;;;;;;;;;8.60;70.00;;;;;;2085092;28;20140;-90
2022/04/28 06:09:56;;;;;;;;;;;8.60;69.50;;;;;;2102627;28;19967;-90
2022/04/28 06:10:57;;;;;;;;;;;8.60;69.40;;;;;;2102976;28;19912;-90
2022/04/28 06:11:58;;;;;;;;;;;8.60;69.40;;;;;;2086472;28;19923;-90
2022/04/28 06:12:58;;;;;;;;;;;8.60;69.30;;;;;;2085002;28;20384;-90
2022/04/28 06:13:59;;;;;;;;;;;8.60;69.40;;;;;;2104560;28;20037;-89
2022/04/28 06:14:59;;;;;;;;;;;8.70;69.30;;;;;;2082291;28;19923;-90
2022/04/28 06:16:00;;;;;;;;;;;8.70;69.20;;;;;;2073160;28;19968;-90
2022/04/28 06:17:01;;;;;;;;;;;8.70;69.20;;;;;;2090808;28;19904;-90
2022/04/28 06:18:02;;;;;;;;;;;8.70;69.20;;;;;;2082931;28;20369;-91
2022/04/28 06:19:03;;;;;;;;;;;8.80;69.00;;;;;;2087046;28;19949;-89
2022/04/28 06:20:03;;;;;;;;;;;8.80;69.00;;;;;;2085903;28;19917;-91
2022/04/28 06:21:04;;;;;;;;;;;8.80;69.00;;;;;;2083859;28;19921;-90